Bookmark and Share
Track history (hours):
 

New Yoshino

Last reported at 2014-Apr-19 06:33 UTC. Time now 2014-Apr-19 07:02 UTC.
Position N 35°31' E 140°02'.

Length 102 m; draft 6.6 m.

Type: Tanker. MMSI: 431300724.

NotesDate/timePositionNaut miles runAvg speedWind from/ knotsBaromVisibWave heightAir tempDewpointWater temp
2014-Apr-19 06:33N 35°31' E 140°02'0 0.0
2014-Apr-19 05:33N 35°31' E 140°02'0 0.0
2014-Apr-19 04:33N 35°31' E 140°02'0 0.0
2014-Apr-19 03:33N 35°31' E 140°02'0 0.0
2014-Apr-19 02:33N 35°31' E 140°02'0 0.0
2014-Apr-19 01:33N 35°31' E 140°02'0 0.0
2014-Apr-19 00:33N 35°31' E 140°02'0 0.2
2014-Apr-18 23:33N 35°31' E 140°02'6 6.1
2014-Apr-18 22:33N 35°29' E 139°55'0 0.3
2014-Apr-18 21:29N 35°29' E 139°55'0 0.0
2014-Apr-18 20:29N 35°29' E 139°55'0 0.1
2014-Apr-18 19:32N 35°29' E 139°55'0 0.0
2014-Apr-18 18:32N 35°29' E 139°55'0 0.0
2014-Apr-18 17:32N 35°29' E 139°55'0 0.0
2014-Apr-18 16:32N 35°29' E 139°55'0 0.0
2014-Apr-18 15:32N 35°29' E 139°55'0 0.0
2014-Apr-18 14:32N 35°29' E 139°55'0 0.0
2014-Apr-18 13:32N 35°29' E 139°55'0 0.0
2014-Apr-18 12:32N 35°29' E 139°55'0 0.0
2014-Apr-18 11:32N 35°29' E 139°55'0 0.0
2014-Apr-18 10:32N 35°29' E 139°55'0 0.0
2014-Apr-18 09:32N 35°29' E 139°55'0 0.0
2014-Apr-18 08:29N 35°29' E 139°55'0 0.1
2014-Apr-18 07:32N 35°29' E 139°55'0 0.0
2014-Apr-18 06:32N 35°29' E 139°55'1 1.4
2014-Apr-18 05:33N 35°30' E 139°53'6 6.1
2014-Apr-18 04:32N 35°31' E 139°46'0 0.0
2014-Apr-18 03:32N 35°31' E 139°46'0 0.0
2014-Apr-18 02:08N 35°31' E 139°46'0 0.0
2014-Apr-18 01:32N 35°31' E 139°46'0 0.0
2014-Apr-18 00:32N 35°31' E 139°46'0 0.0
2014-Apr-17 23:26N 35°31' E 139°46'0 0.0
2014-Apr-17 22:14N 35°31' E 139°46'0 0.0
2014-Apr-17 21:32N 35°31' E 139°46'0 0.4
2014-Apr-17 20:34N 35°31' E 139°46'6 6.0
2014-Apr-17 19:34N 35°25' E 139°45'0 0.3
2014-Apr-17 18:31N 35°25' E 139°45'0 0.0
2014-Apr-17 17:32N 35°25' E 139°45'0 0.0
2014-Apr-17 16:31N 35°25' E 139°45'0 0.0
2014-Apr-17 15:28N 35°25' E 139°45'0 0.0
2014-Apr-17 14:32N 35°25' E 139°45'0 0.0
2014-Apr-17 13:31N 35°25' E 139°45'5 5.6
2014-Apr-17 12:33N 35°19' E 139°43'1212.1
2014-Apr-17 11:33N 35°07' E 139°45'1514.8
2014-Apr-17 10:33N 34°57' E 139°31'23012.5
2014-Apr-16 16:10N 33°59' E 135°02'914.0
2014-Apr-16 15:33N 34°07' E 135°04'3 0.2
2014-Apr-16 02:21N 34°07' E 135°08'1 1.0
2014-Apr-16 01:33N 34°08' E 135°07'221 9.2
2014-Apr-15 01:34N 34°56' E 139°29'1312.9
2014-Apr-15 00:34N 35°05' E 139°41'1212.4
2014-Apr-14 23:34N 35°17' E 139°45'1110.9
2014-Apr-14 22:34N 35°27' E 139°47'1212.3
2014-Apr-14 21:34N 35°31' E 140°02'1 0.3
2014-Apr-14 19:31N 35°31' E 140°02'0 0.0
2014-Apr-14 18:31N 35°31' E 140°02'0 0.0
2014-Apr-14 17:31N 35°31' E 140°02'0 0.0
2014-Apr-14 16:31N 35°31' E 140°02'0 0.0
2014-Apr-14 15:31N 35°31' E 140°02'0 0.0
2014-Apr-14 13:31N 35°31' E 140°02'0 0.0
2014-Apr-14 06:31N 35°31' E 140°02'0 0.0
2014-Apr-14 05:31N 35°31' E 140°02'2 0.2
2014-Apr-13 22:33N 35°31' E 140°01'0 0.0
2014-Apr-13 21:33N 35°32' E 140°01'0 0.0
2014-Apr-13 20:33N 35°31' E 140°01'0 0.0
2014-Apr-13 19:33N 35°32' E 140°01'0 0.1
2014-Apr-13 18:33N 35°32' E 140°01'4 4.2
2014-Apr-13 17:34N 35°30' E 139°56'1313.3
2014-Apr-13 16:33N 35°20' E 139°45'1312.8
2014-Apr-13 15:33N 35°08' E 139°46'1414.1
2014-Apr-13 14:33N 34°58' E 139°33'1514.7
2014-Apr-13 13:32N 34°49' E 139°18'11 0.4
2014-Apr-12 09:33N 34°56' E 139°29'1313.2
2014-Apr-12 08:34N 35°05' E 139°41'1212.1
2014-Apr-12 07:33N 35°17' E 139°45'1111.3
2014-Apr-12 06:34N 35°28' E 139°47'3 3.2
2014-Apr-12 05:33N 35°31' E 139°46'0 0.0
2014-Apr-12 04:33N 35°31' E 139°46'0 0.0
2014-Apr-12 03:33N 35°31' E 139°46'0 0.0
2014-Apr-12 02:33N 35°31' E 139°46'0 0.0
2014-Apr-12 01:33N 35°31' E 139°46'0 0.0
2014-Apr-12 00:30N 35°31' E 139°46'0 0.0
2014-Apr-11 23:33N 35°31' E 139°46'0 0.0
2014-Apr-11 22:33N 35°31' E 139°46'5 4.6
2014-Apr-11 21:34N 35°28' E 139°42'4 3.9
2014-Apr-11 20:32N 35°24' E 139°45'0 0.0
2014-Apr-11 19:32N 35°24' E 139°45'0 0.0
2014-Apr-11 18:30N 35°24' E 139°45'9 9.3
2014-Apr-11 17:33N 35°16' E 139°46'1313.1
2014-Apr-11 16:34N 35°03' E 139°44'1510.6
2014-Apr-11 15:07N 34°52' E 139°57'813.8
2014-Apr-11 14:32N 34°56' E 140°06'2813.1
2014-Apr-11 12:25N 35°14' E 140°32'27 0.9
2014-Apr-10 08:15N 34°56' E 140°07'2011.7
2014-Apr-10 06:33N 34°55' E 139°43'1111.4
2014-Apr-10 05:33N 35°07' E 139°44'1211.8
2014-Apr-10 04:33N 35°18' E 139°44'1010.4
2014-Apr-10 03:33N 35°29' E 139°46'0 0.3
2014-Apr-10 02:31N 35°29' E 139°46'3 2.5
2014-Apr-10 01:28N 35°31' E 139°46'0 0.0
2014-Apr-10 00:28N 35°31' E 139°46'0 0.0
2014-Apr-09 23:31N 35°31' E 139°46'0 0.0
2014-Apr-09 22:31N 35°31' E 139°46'1 0.7
2014-Apr-09 21:33N 35°31' E 139°46'6 6.2
2014-Apr-09 20:33N 35°24' E 139°45'0 0.1
2014-Apr-09 19:32N 35°24' E 139°45'0 0.0
2014-Apr-09 18:32N 35°24' E 139°45'0 0.0
2014-Apr-09 17:32N 35°24' E 139°45'0 0.0
2014-Apr-09 16:32N 35°24' E 139°45'0 0.0
2014-Apr-09 15:32N 35°24' E 139°45'0 0.0
2014-Apr-09 14:32N 35°24' E 139°45'0 0.0
2014-Apr-09 13:32N 35°24' E 139°45'0 0.1
2014-Apr-09 12:32N 35°24' E 139°45'0 0.0
2014-Apr-09 11:32N 35°24' E 139°45'0 0.0
2014-Apr-09 10:32N 35°24' E 139°45'0 0.0
2014-Apr-09 09:32N 35°24' E 139°45'0 0.0
2014-Apr-09 08:32N 35°24' E 139°45'0 0.0
2014-Apr-09 07:32N 35°24' E 139°45'1 1.0
2014-Apr-09 06:33N 35°25' E 139°46'  

Dump ship's entire track history

sailing weather and tide predictions

New Yoshino — JG5527 — position and weather